sensor_id;sensor_type;location;lat;lon;timestamp;P1;durP1;ratioP1;P2;durP2;ratioP2
23617;SDS011;18207;32.078;34.818;2022-10-03T00:01:18;3.53;;;1.52;;
23617;SDS011;18207;32.078;34.818;2022-10-03T00:04:26;2.38;;;1.42;;
23617;SDS011;18207;32.078;34.818;2022-10-03T00:07:22;2.22;;;1.50;;
23617;SDS011;18207;32.078;34.818;2022-10-03T00:10:19;2.03;;;1.50;;
23617;SDS011;18207;32.078;34.818;2022-10-03T00:13:06;1.73;;;1.60;;
23617;SDS011;18207;32.078;34.818;2022-10-03T00:15:52;2.13;;;1.40;;
23617;SDS011;18207;32.078;34.818;2022-10-03T00:18:42;2.70;;;1.70;;
23617;SDS011;18207;32.078;34.818;2022-10-03T00:21:29;1.80;;;1.70;;
23617;SDS011;18207;32.078;34.818;2022-10-03T00:24:21;1.50;;;1.40;;
23617;SDS011;18207;32.078;34.818;2022-10-03T00:27:07;3.92;;;1.42;;
23617;SDS011;18207;32.078;34.818;2022-10-03T00:29:58;2.50;;;1.83;;
23617;SDS011;18207;32.078;34.818;2022-10-03T00:32:44;1.45;;;1.27;;
23617;SDS011;18207;32.078;34.818;2022-10-03T00:35:37;2.75;;;1.50;;
23617;SDS011;18207;32.078;34.818;2022-10-03T00:38:56;2.10;;;1.48;;
23617;SDS011;18207;32.078;34.818;2022-10-03T00:52:25;1.35;;;1.23;;
23617;SDS011;18207;32.078;34.818;2022-10-03T00:55:21;3.83;;;1.58;;
23617;SDS011;18207;32.078;34.818;2022-10-03T00:58:18;2.03;;;1.60;;
23617;SDS011;18207;32.078;34.818;2022-10-03T01:01:21;2.65;;;1.60;;
23617;SDS011;18207;32.078;34.818;2022-10-03T01:04:15;1.90;;;1.60;;
23617;SDS011;18207;32.078;34.818;2022-10-03T01:07:12;2.75;;;1.40;;
23617;SDS011;18207;32.078;34.818;2022-10-03T01:10:21;2.10;;;1.40;;
23617;SDS011;18207;32.078;34.818;2022-10-03T01:13:09;1.92;;;1.30;;
23617;SDS011;18207;32.078;34.818;2022-10-03T01:16:02;3.83;;;1.58;;
23617;SDS011;18207;32.078;34.818;2022-10-03T01:18:49;1.85;;;1.48;;
23617;SDS011;18207;32.078;34.818;2022-10-03T01:21:37;2.25;;;1.45;;
23617;SDS011;18207;32.078;34.818;2022-10-03T01:27:30;2.33;;;1.35;;
23617;SDS011;18207;32.078;34.818;2022-10-03T01:30:34;1.42;;;1.30;;
23617;SDS011;18207;32.078;34.818;2022-10-03T01:33:14;2.38;;;1.70;;
23617;SDS011;18207;32.078;34.818;2022-10-03T01:35:55;1.80;;;1.50;;
23617;SDS011;18207;32.078;34.818;2022-10-03T01:38:40;1.88;;;1.45;;
23617;SDS011;18207;32.078;34.818;2022-10-03T01:41:23;1.85;;;1.52;;
23617;SDS011;18207;32.078;34.818;2022-10-03T01:44:09;2.22;;;1.30;;
23617;SDS011;18207;32.078;34.818;2022-10-03T01:46:53;1.40;;;1.27;;
23617;SDS011;18207;32.078;34.818;2022-10-03T01:49:47;1.52;;;1.42;;
23617;SDS011;18207;32.078;34.818;2022-10-03T01:52:31;2.95;;;1.55;;
23617;SDS011;18207;32.078;34.818;2022-10-03T01:55:14;1.92;;;1.45;;
23617;SDS011;18207;32.078;34.818;2022-10-03T01:57:59;2.17;;;1.15;;
23617;SDS011;18207;32.078;34.818;2022-10-03T02:00:40;1.83;;;1.58;;
23617;SDS011;18207;32.078;34.818;2022-10-03T02:03:22;1.63;;;1.40;;
23617;SDS011;18207;32.078;34.818;2022-10-03T02:05:59;3.63;;;1.80;;
23617;SDS011;18207;32.078;34.818;2022-10-03T02:08:50;2.45;;;1.38;;
23617;SDS011;18207;32.078;34.818;2022-10-03T02:11:31;1.25;;;1.17;;
23617;SDS011;18207;32.078;34.818;2022-10-03T02:14:19;1.92;;;1.55;;
23617;SDS011;18207;32.078;34.818;2022-10-03T02:17:02;2.05;;;1.48;;
23617;SDS011;18207;32.078;34.818;2022-10-03T02:19:43;2.78;;;1.90;;
23617;SDS011;18207;32.078;34.818;2022-10-03T02:25:26;2.33;;;1.92;;
23617;SDS011;18207;32.078;34.818;2022-10-03T02:35:04;1.33;;;1.23;;
23617;SDS011;18207;32.078;34.818;2022-10-03T02:38:04;1.88;;;1.52;;
23617;SDS011;18207;32.078;34.818;2022-10-03T02:47:22;1.40;;;1.30;;
23617;SDS011;18207;32.078;34.818;2022-10-03T03:01:12;1.95;;;1.42;;
23617;SDS011;18207;32.078;34.818;2022-10-03T03:11:32;3.20;;;1.40;;
23617;SDS011;18207;32.078;34.818;2022-10-03T03:18:26;1.70;;;1.17;;
23617;SDS011;18207;32.078;34.818;2022-10-03T03:21:10;2.45;;;1.42;;
23617;SDS011;18207;32.078;34.818;2022-10-03T03:27:14;1.67;;;1.50;;
23617;SDS011;18207;32.078;34.818;2022-10-03T03:30:01;1.80;;;1.30;;
23617;SDS011;18207;32.078;34.818;2022-10-03T03:32:52;2.20;;;1.27;;
23617;SDS011;18207;32.078;34.818;2022-10-03T03:35:44;1.45;;;1.20;;
23617;SDS011;18207;32.078;34.818;2022-10-03T03:38:31;1.65;;;1.08;;
23617;SDS011;18207;32.078;34.818;2022-10-03T03:41:20;1.45;;;1.30;;
23617;SDS011;18207;32.078;34.818;2022-10-03T03:47:35;1.80;;;1.25;;
23617;SDS011;18207;32.078;34.818;2022-10-03T03:50:44;3.28;;;1.30;;
23617;SDS011;18207;32.078;34.818;2022-10-03T03:53:31;2.40;;;1.45;;
23617;SDS011;18207;32.078;34.818;2022-10-03T03:56:29;2.65;;;1.38;;
23617;SDS011;18207;32.078;34.818;2022-10-03T03:59:22;2.25;;;1.30;;
23617;SDS011;18207;32.078;34.818;2022-10-03T04:02:20;2.03;;;1.38;;
23617;SDS011;18207;32.078;34.818;2022-10-03T04:05:08;1.38;;;1.27;;
23617;SDS011;18207;32.078;34.818;2022-10-03T04:08:08;1.85;;;1.30;;
23617;SDS011;18207;32.078;34.818;2022-10-03T04:11:05;3.08;;;1.30;;
23617;SDS011;18207;32.078;34.818;2022-10-03T04:17:09;1.48;;;1.35;;
23617;SDS011;18207;32.078;34.818;2022-10-03T04:20:20;1.35;;;1.25;;
23617;SDS011;18207;32.078;34.818;2022-10-03T04:23:14;2.35;;;1.30;;
23617;SDS011;18207;32.078;34.818;2022-10-03T04:26:17;2.28;;;1.60;;
23617;SDS011;18207;32.078;34.818;2022-10-03T04:29:15;2.33;;;1.20;;
23617;SDS011;18207;32.078;34.818;2022-10-03T04:32:14;2.80;;;1.42;;
23617;SDS011;18207;32.078;34.818;2022-10-03T04:35:22;1.08;;;0.93;;
23617;SDS011;18207;32.078;34.818;2022-10-03T04:38:40;1.52;;;1.05;;
23617;SDS011;18207;32.078;34.818;2022-10-03T04:41:24;1.90;;;1.50;;
23617;SDS011;18207;32.078;34.818;2022-10-03T04:44:10;2.50;;;1.35;;
23617;SDS011;18207;32.078;34.818;2022-10-03T04:47:02;3.17;;;1.45;;
23617;SDS011;18207;32.078;34.818;2022-10-03T04:49:43;2.15;;;1.10;;
23617;SDS011;18207;32.078;34.818;2022-10-03T04:52:26;2.28;;;1.50;;
23617;SDS011;18207;32.078;34.818;2022-10-03T04:55:06;1.77;;;1.40;;
23617;SDS011;18207;32.078;34.818;2022-10-03T04:57:55;2.13;;;1.30;;
23617;SDS011;18207;32.078;34.818;2022-10-03T05:00:38;1.95;;;1.30;;
23617;SDS011;18207;32.078;34.818;2022-10-03T05:03:30;1.35;;;1.20;;
23617;SDS011;18207;32.078;34.818;2022-10-03T05:06:30;2.30;;;1.45;;
23617;SDS011;18207;32.078;34.818;2022-10-03T05:09:19;3.47;;;1.65;;
23617;SDS011;18207;32.078;34.818;2022-10-03T05:12:01;3.97;;;1.30;;
23617;SDS011;18207;32.078;34.818;2022-10-03T05:14:45;1.80;;;1.40;;
23617;SDS011;18207;32.078;34.818;2022-10-03T05:17:38;1.67;;;1.25;;
23617;SDS011;18207;32.078;34.818;2022-10-03T05:20:23;3.88;;;1.52;;
23617;SDS011;18207;32.078;34.818;2022-10-03T05:23:23;1.85;;;1.30;;
23617;SDS011;18207;32.078;34.818;2022-10-03T05:26:10;2.00;;;1.38;;
23617;SDS011;18207;32.078;34.818;2022-10-03T05:29:14;1.52;;;1.42;;
23617;SDS011;18207;32.078;34.818;2022-10-03T05:32:00;2.47;;;1.27;;
23617;SDS011;18207;32.078;34.818;2022-10-03T05:34:54;1.83;;;1.40;;
23617;SDS011;18207;32.078;34.818;2022-10-03T05:38:15;3.33;;;1.40;;
23617;SDS011;18207;32.078;34.818;2022-10-03T05:41:19;3.70;;;1.50;;
23617;SDS011;18207;32.078;34.818;2022-10-03T05:44:00;1.27;;;1.10;;
23617;SDS011;18207;32.078;34.818;2022-10-03T05:46:40;5.28;;;1.20;;
23617;SDS011;18207;32.078;34.818;2022-10-03T05:49:35;1.95;;;1.38;;
23617;SDS011;18207;32.078;34.818;2022-10-03T05:52:45;2.97;;;1.40;;
23617;SDS011;18207;32.078;34.818;2022-10-03T05:55:38;4.25;;;1.45;;
23617;SDS011;18207;32.078;34.818;2022-10-03T05:58:32;2.17;;;1.27;;
23617;SDS011;18207;32.078;34.818;2022-10-03T06:01:45;3.40;;;1.20;;
23617;SDS011;18207;32.078;34.818;2022-10-03T06:05:07;2.30;;;1.48;;
23617;SDS011;18207;32.078;34.818;2022-10-03T06:08:00;3.50;;;1.55;;
23617;SDS011;18207;32.078;34.818;2022-10-03T06:17:51;1.90;;;1.15;;
23617;SDS011;18207;32.078;34.818;2022-10-03T06:24:07;1.50;;;1.40;;
23617;SDS011;18207;32.078;34.818;2022-10-03T06:31:00;2.17;;;1.20;;
23617;SDS011;18207;32.078;34.818;2022-10-03T06:34:17;1.58;;;1.10;;
23617;SDS011;18207;32.078;34.818;2022-10-03T06:37:48;1.67;;;1.15;;
23617;SDS011;18207;32.078;34.818;2022-10-03T06:41:18;2.25;;;1.35;;
23617;SDS011;18207;32.078;34.818;2022-10-03T06:48:16;1.30;;;1.20;;
23617;SDS011;18207;32.078;34.818;2022-10-03T06:51:21;2.17;;;1.38;;
23617;SDS011;18207;32.078;34.818;2022-10-03T06:54:45;1.63;;;1.40;;
23617;SDS011;18207;32.078;34.818;2022-10-03T07:05:05;2.05;;;1.30;;
23617;SDS011;18207;32.078;34.818;2022-10-03T07:15:19;2.95;;;1.20;;
23617;SDS011;18207;32.078;34.818;2022-10-03T07:25:26;1.20;;;1.10;;
23617;SDS011;18207;32.078;34.818;2022-10-03T07:32:01;2.30;;;1.38;;
23617;SDS011;18207;32.078;34.818;2022-10-03T07:35:14;1.00;;;1.00;;
23617;SDS011;18207;32.078;34.818;2022-10-03T07:42:42;1.98;;;1.40;;
23617;SDS011;18207;32.078;34.818;2022-10-03T07:46:02;1.63;;;1.30;;
23617;SDS011;18207;32.078;34.818;2022-10-03T07:49:15;1.63;;;1.13;;
23617;SDS011;18207;32.078;34.818;2022-10-03T07:55:49;1.60;;;1.50;;
23617;SDS011;18207;32.078;34.818;2022-10-03T07:58:50;1.35;;;1.25;;
23617;SDS011;18207;32.078;34.818;2022-10-03T08:01:54;1.48;;;1.17;;
23617;SDS011;18207;32.078;34.818;2022-10-03T08:05:00;1.95;;;1.40;;
23617;SDS011;18207;32.078;34.818;2022-10-03T08:08:05;2.35;;;1.50;;
23617;SDS011;18207;32.078;34.818;2022-10-03T08:11:13;1.45;;;1.20;;
23617;SDS011;18207;32.078;34.818;2022-10-03T08:14:16;2.78;;;1.30;;
23617;SDS011;18207;32.078;34.818;2022-10-03T08:23:35;1.65;;;1.35;;
23617;SDS011;18207;32.078;34.818;2022-10-03T08:27:01;1.52;;;1.40;;
23617;SDS011;18207;32.078;34.818;2022-10-03T08:30:03;1.77;;;1.50;;
23617;SDS011;18207;32.078;34.818;2022-10-03T08:39:48;1.52;;;1.33;;
23617;SDS011;18207;32.078;34.818;2022-10-03T08:53:49;3.53;;;1.20;;
23617;SDS011;18207;32.078;34.818;2022-10-03T08:56:55;1.95;;;1.00;;
23617;SDS011;18207;32.078;34.818;2022-10-03T09:00:04;2.22;;;1.17;;
23617;SDS011;18207;32.078;34.818;2022-10-03T09:02:59;1.98;;;0.90;;
23617;SDS011;18207;32.078;34.818;2022-10-03T09:10:04;1.48;;;0.85;;
23617;SDS011;18207;32.078;34.818;2022-10-03T09:16:38;1.50;;;1.20;;
23617;SDS011;18207;32.078;34.818;2022-10-03T09:26:48;1.75;;;1.23;;
23617;SDS011;18207;32.078;34.818;2022-10-03T09:33:01;1.85;;;1.17;;
23617;SDS011;18207;32.078;34.818;2022-10-03T09:36:29;2.90;;;1.45;;
23617;SDS011;18207;32.078;34.818;2022-10-03T09:43:29;1.52;;;1.10;;
23617;SDS011;18207;32.078;34.818;2022-10-03T09:46:54;2.55;;;1.77;;
23617;SDS011;18207;32.078;34.818;2022-10-03T09:53:38;3.15;;;1.35;;
23617;SDS011;18207;32.078;34.818;2022-10-03T09:57:12;2.40;;;1.35;;
23617;SDS011;18207;32.078;34.818;2022-10-03T10:00:22;2.65;;;1.45;;
23617;SDS011;18207;32.078;34.818;2022-10-03T10:10:31;2.17;;;1.02;;
23617;SDS011;18207;32.078;34.818;2022-10-03T10:17:21;3.55;;;1.30;;
23617;SDS011;18207;32.078;34.818;2022-10-03T10:24:05;2.03;;;1.10;;
23617;SDS011;18207;32.078;34.818;2022-10-03T10:27:32;3.80;;;1.58;;
23617;SDS011;18207;32.078;34.818;2022-10-03T10:34:24;2.85;;;1.20;;
23617;SDS011;18207;32.078;34.818;2022-10-03T10:37:53;2.63;;;1.33;;
23617;SDS011;18207;32.078;34.818;2022-10-03T10:51:37;1.73;;;1.25;;
23617;SDS011;18207;32.078;34.818;2022-10-03T10:54:54;1.77;;;1.23;;
23617;SDS011;18207;32.078;34.818;2022-10-03T10:58:33;2.65;;;1.35;;
23617;SDS011;18207;32.078;34.818;2022-10-03T11:02:09;2.95;;;1.25;;
23617;SDS011;18207;32.078;34.818;2022-10-03T11:08:48;2.30;;;1.40;;
23617;SDS011;18207;32.078;34.818;2022-10-03T11:12:10;1.95;;;1.40;;
23617;SDS011;18207;32.078;34.818;2022-10-03T11:19:28;3.75;;;1.70;;
23617;SDS011;18207;32.078;34.818;2022-10-03T11:23:10;2.63;;;1.55;;
23617;SDS011;18207;32.078;34.818;2022-10-03T11:30:20;2.55;;;1.48;;
23617;SDS011;18207;32.078;34.818;2022-10-03T11:37:13;3.17;;;1.70;;
23617;SDS011;18207;32.078;34.818;2022-10-03T11:40:03;3.78;;;1.52;;
23617;SDS011;18207;32.078;34.818;2022-10-03T11:43:26;3.05;;;1.60;;
23617;SDS011;18207;32.078;34.818;2022-10-03T11:49:30;2.55;;;1.35;;
23617;SDS011;18207;32.078;34.818;2022-10-03T11:52:33;3.88;;;1.55;;
23617;SDS011;18207;32.078;34.818;2022-10-03T11:55:24;3.40;;;1.58;;
23617;SDS011;18207;32.078;34.818;2022-10-03T11:58:10;2.17;;;1.40;;
23617;SDS011;18207;32.078;34.818;2022-10-03T12:01:03;2.90;;;1.38;;
23617;SDS011;18207;32.078;34.818;2022-10-03T12:03:59;3.58;;;1.48;;
23617;SDS011;18207;32.078;34.818;2022-10-03T12:06:55;3.33;;;1.65;;
23617;SDS011;18207;32.078;34.818;2022-10-03T12:10:03;3.28;;;1.65;;
23617;SDS011;18207;32.078;34.818;2022-10-03T12:12:47;2.50;;;1.35;;
23617;SDS011;18207;32.078;34.818;2022-10-03T12:15:28;2.40;;;1.50;;
23617;SDS011;18207;32.078;34.818;2022-10-03T12:18:08;1.65;;;1.25;;
23617;SDS011;18207;32.078;34.818;2022-10-03T12:20:55;2.33;;;1.20;;
23617;SDS011;18207;32.078;34.818;2022-10-03T12:26:57;1.85;;;1.30;;
23617;SDS011;18207;32.078;34.818;2022-10-03T12:29:41;1.95;;;1.20;;
23617;SDS011;18207;32.078;34.818;2022-10-03T12:32:26;3.63;;;1.70;;
23617;SDS011;18207;32.078;34.818;2022-10-03T12:35:14;2.25;;;1.45;;
23617;SDS011;18207;32.078;34.818;2022-10-03T12:38:09;2.80;;;1.50;;
23617;SDS011;18207;32.078;34.818;2022-10-03T12:40:57;2.35;;;1.42;;
23617;SDS011;18207;32.078;34.818;2022-10-03T12:43:47;2.38;;;1.60;;
23617;SDS011;18207;32.078;34.818;2022-10-03T12:46:39;2.38;;;1.50;;
23617;SDS011;18207;32.078;34.818;2022-10-03T12:49:33;2.70;;;1.52;;
23617;SDS011;18207;32.078;34.818;2022-10-03T12:52:20;2.55;;;1.30;;
23617;SDS011;18207;32.078;34.818;2022-10-03T12:57:57;2.20;;;1.25;;
23617;SDS011;18207;32.078;34.818;2022-10-03T13:00:43;2.25;;;1.38;;
23617;SDS011;18207;32.078;34.818;2022-10-03T13:03:31;3.33;;;1.38;;
23617;SDS011;18207;32.078;34.818;2022-10-03T13:06:19;2.28;;;1.05;;
23617;SDS011;18207;32.078;34.818;2022-10-03T13:09:30;1.23;;;1.05;;
23617;SDS011;18207;32.078;34.818;2022-10-03T13:12:38;3.20;;;1.33;;
23617;SDS011;18207;32.078;34.818;2022-10-03T13:18:36;2.20;;;1.35;;
23617;SDS011;18207;32.078;34.818;2022-10-03T13:21:16;2.33;;;1.40;;
23617;SDS011;18207;32.078;34.818;2022-10-03T13:24:17;2.38;;;1.20;;
23617;SDS011;18207;32.078;34.818;2022-10-03T13:27:02;2.85;;;1.25;;
23617;SDS011;18207;32.078;34.818;2022-10-03T13:30:03;3.45;;;1.08;;
23617;SDS011;18207;32.078;34.818;2022-10-03T13:32:54;1.48;;;1.30;;
23617;SDS011;18207;32.078;34.818;2022-10-03T13:35:31;2.35;;;1.30;;
23617;SDS011;18207;32.078;34.818;2022-10-03T13:38:33;2.22;;;0.98;;
23617;SDS011;18207;32.078;34.818;2022-10-03T13:41:41;3.80;;;1.40;;
23617;SDS011;18207;32.078;34.818;2022-10-03T13:44:36;2.33;;;1.30;;
23617;SDS011;18207;32.078;34.818;2022-10-03T13:50:23;1.80;;;1.15;;
23617;SDS011;18207;32.078;34.818;2022-10-03T13:53:03;1.50;;;1.25;;
23617;SDS011;18207;32.078;34.818;2022-10-03T13:55:44;1.95;;;1.20;;
23617;SDS011;18207;32.078;34.818;2022-10-03T13:58:32;2.47;;;1.30;;
23617;SDS011;18207;32.078;34.818;2022-10-03T14:01:22;2.45;;;1.35;;
23617;SDS011;18207;32.078;34.818;2022-10-03T14:04:19;1.48;;;1.15;;
23617;SDS011;18207;32.078;34.818;2022-10-03T14:07:27;1.67;;;1.08;;
23617;SDS011;18207;32.078;34.818;2022-10-03T14:10:16;2.25;;;1.30;;
23617;SDS011;18207;32.078;34.818;2022-10-03T14:13:08;2.90;;;1.40;;
23617;SDS011;18207;32.078;34.818;2022-10-03T14:15:51;2.15;;;1.40;;
23617;SDS011;18207;32.078;34.818;2022-10-03T14:18:38;2.03;;;1.00;;
23617;SDS011;18207;32.078;34.818;2022-10-03T14:21:26;2.55;;;1.27;;
23617;SDS011;18207;32.078;34.818;2022-10-03T14:24:33;2.00;;;1.20;;
23617;SDS011;18207;32.078;34.818;2022-10-03T14:30:21;2.78;;;1.10;;
23617;SDS011;18207;32.078;34.818;2022-10-03T14:33:03;2.63;;;1.05;;
23617;SDS011;18207;32.078;34.818;2022-10-03T14:35:53;2.50;;;1.08;;
23617;SDS011;18207;32.078;34.818;2022-10-03T14:42:05;3.50;;;1.20;;
23617;SDS011;18207;32.078;34.818;2022-10-03T14:45:00;1.75;;;1.05;;
23617;SDS011;18207;32.078;34.818;2022-10-03T14:47:38;2.42;;;1.35;;
23617;SDS011;18207;32.078;34.818;2022-10-03T14:50:16;1.23;;;0.88;;
23617;SDS011;18207;32.078;34.818;2022-10-03T14:52:54;2.28;;;1.17;;
23617;SDS011;18207;32.078;34.818;2022-10-03T14:55:42;2.60;;;1.13;;
23617;SDS011;18207;32.078;34.818;2022-10-03T14:58:24;1.48;;;0.90;;
23617;SDS011;18207;32.078;34.818;2022-10-03T15:01:01;1.67;;;1.23;;
23617;SDS011;18207;32.078;34.818;2022-10-03T15:03:41;1.73;;;0.85;;
23617;SDS011;18207;32.078;34.818;2022-10-03T15:06:36;2.22;;;0.98;;
23617;SDS011;18207;32.078;34.818;2022-10-03T15:09:23;2.25;;;1.00;;
23617;SDS011;18207;32.078;34.818;2022-10-03T15:12:03;2.58;;;1.15;;
23617;SDS011;18207;32.078;34.818;2022-10-03T15:14:40;1.60;;;1.10;;
23617;SDS011;18207;32.078;34.818;2022-10-03T15:17:17;2.22;;;1.10;;
23617;SDS011;18207;32.078;34.818;2022-10-03T15:19:51;1.10;;;1.00;;
23617;SDS011;18207;32.078;34.818;2022-10-03T15:22:29;1.83;;;1.10;;
23617;SDS011;18207;32.078;34.818;2022-10-03T15:25:06;1.85;;;1.08;;
23617;SDS011;18207;32.078;34.818;2022-10-03T15:27:47;2.50;;;1.20;;
23617;SDS011;18207;32.078;34.818;2022-10-03T15:30:22;1.67;;;1.10;;
23617;SDS011;18207;32.078;34.818;2022-10-03T15:33:02;1.55;;;1.00;;
23617;SDS011;18207;32.078;34.818;2022-10-03T15:35:42;1.40;;;1.05;;
23617;SDS011;18207;32.078;34.818;2022-10-03T15:38:21;1.88;;;1.15;;
23617;SDS011;18207;32.078;34.818;2022-10-03T15:41:04;1.92;;;1.20;;
23617;SDS011;18207;32.078;34.818;2022-10-03T15:43:49;1.65;;;1.10;;
23617;SDS011;18207;32.078;34.818;2022-10-03T15:46:31;2.30;;;1.30;;
23617;SDS011;18207;32.078;34.818;2022-10-03T15:49:13;1.85;;;1.13;;
23617;SDS011;18207;32.078;34.818;2022-10-03T15:51:52;2.08;;;1.10;;
23617;SDS011;18207;32.078;34.818;2022-10-03T15:54:28;1.20;;;1.10;;
23617;SDS011;18207;32.078;34.818;2022-10-03T15:57:04;1.52;;;0.93;;
23617;SDS011;18207;32.078;34.818;2022-10-03T15:59:48;2.97;;;1.23;;
23617;SDS011;18207;32.078;34.818;2022-10-03T16:02:30;1.67;;;1.15;;
23617;SDS011;18207;32.078;34.818;2022-10-03T16:05:06;1.63;;;1.10;;
23617;SDS011;18207;32.078;34.818;2022-10-03T16:07:54;2.53;;;1.13;;
23617;SDS011;18207;32.078;34.818;2022-10-03T16:10:34;2.08;;;1.20;;
23617;SDS011;18207;32.078;34.818;2022-10-03T16:13:15;2.13;;;1.30;;
23617;SDS011;18207;32.078;34.818;2022-10-03T16:16:04;1.42;;;1.02;;
23617;SDS011;18207;32.078;34.818;2022-10-03T16:18:57;1.60;;;1.23;;
23617;SDS011;18207;32.078;34.818;2022-10-03T16:21:54;2.20;;;0.98;;
23617;SDS011;18207;32.078;34.818;2022-10-03T16:24:45;1.27;;;0.90;;
23617;SDS011;18207;32.078;34.818;2022-10-03T16:27:38;1.52;;;0.88;;
23617;SDS011;18207;32.078;34.818;2022-10-03T16:30:21;2.42;;;1.40;;
23617;SDS011;18207;32.078;34.818;2022-10-03T16:33:01;2.03;;;1.20;;
23617;SDS011;18207;32.078;34.818;2022-10-03T16:35:46;2.67;;;1.30;;
23617;SDS011;18207;32.078;34.818;2022-10-03T16:38:20;2.42;;;1.20;;
23617;SDS011;18207;32.078;34.818;2022-10-03T16:40:55;2.33;;;1.20;;
23617;SDS011;18207;32.078;34.818;2022-10-03T16:43:29;1.38;;;0.90;;
23617;SDS011;18207;32.078;34.818;2022-10-03T16:46:03;2.60;;;1.20;;
23617;SDS011;18207;32.078;34.818;2022-10-03T16:48:44;1.70;;;1.00;;
23617;SDS011;18207;32.078;34.818;2022-10-03T16:51:34;1.88;;;1.10;;
23617;SDS011;18207;32.078;34.818;2022-10-03T16:54:10;1.77;;;1.05;;
23617;SDS011;18207;32.078;34.818;2022-10-03T16:56:46;2.42;;;1.30;;
23617;SDS011;18207;32.078;34.818;2022-10-03T16:59:25;3.17;;;1.30;;
23617;SDS011;18207;32.078;34.818;2022-10-03T17:02:00;1.45;;;1.10;;
23617;SDS011;18207;32.078;34.818;2022-10-03T17:04:38;2.10;;;1.05;;
23617;SDS011;18207;32.078;34.818;2022-10-03T17:07:13;1.80;;;0.98;;
23617;SDS011;18207;32.078;34.818;2022-10-03T17:09:50;3.13;;;1.70;;
23617;SDS011;18207;32.078;34.818;2022-10-03T17:12:24;1.92;;;1.08;;
23617;SDS011;18207;32.078;34.818;2022-10-03T17:15:02;2.22;;;1.10;;
23617;SDS011;18207;32.078;34.818;2022-10-03T17:17:38;1.63;;;1.20;;
23617;SDS011;18207;32.078;34.818;2022-10-03T17:20:26;1.92;;;1.10;;
23617;SDS011;18207;32.078;34.818;2022-10-03T17:23:18;2.30;;;1.20;;
23617;SDS011;18207;32.078;34.818;2022-10-03T17:26:01;2.33;;;1.20;;
23617;SDS011;18207;32.078;34.818;2022-10-03T17:28:38;1.73;;;1.02;;
23617;SDS011;18207;32.078;34.818;2022-10-03T17:31:26;1.88;;;0.98;;
23617;SDS011;18207;32.078;34.818;2022-10-03T17:34:08;1.63;;;1.00;;
23617;SDS011;18207;32.078;34.818;2022-10-03T17:36:57;1.50;;;1.05;;
23617;SDS011;18207;32.078;34.818;2022-10-03T17:40:14;1.00;;;0.90;;
23617;SDS011;18207;32.078;34.818;2022-10-03T17:42:56;1.85;;;1.10;;
23617;SDS011;18207;32.078;34.818;2022-10-03T17:45:36;1.45;;;0.93;;
23617;SDS011;18207;32.078;34.818;2022-10-03T17:48:13;1.70;;;1.25;;
23617;SDS011;18207;32.078;34.818;2022-10-03T17:50:51;2.30;;;1.23;;
23617;SDS011;18207;32.078;34.818;2022-10-03T17:53:31;2.38;;;1.35;;
23617;SDS011;18207;32.078;34.818;2022-10-03T17:56:08;1.33;;;1.08;;
23617;SDS011;18207;32.078;34.818;2022-10-03T17:58:47;1.00;;;0.90;;
23617;SDS011;18207;32.078;34.818;2022-10-03T18:01:26;1.92;;;0.90;;
23617;SDS011;18207;32.078;34.818;2022-10-03T18:04:06;1.48;;;0.95;;
23617;SDS011;18207;32.078;34.818;2022-10-03T18:06:47;1.33;;;0.90;;
23617;SDS011;18207;32.078;34.818;2022-10-03T18:09:26;2.28;;;1.13;;
23617;SDS011;18207;32.078;34.818;2022-10-03T18:12:11;2.33;;;1.10;;
23617;SDS011;18207;32.078;34.818;2022-10-03T18:21:29;1.63;;;1.08;;
23617;SDS011;18207;32.078;34.818;2022-10-03T18:27:31;1.65;;;1.13;;
23617;SDS011;18207;32.078;34.818;2022-10-03T18:30:31;1.70;;;1.10;;
23617;SDS011;18207;32.078;34.818;2022-10-03T18:33:12;2.42;;;1.40;;
23617;SDS011;18207;32.078;34.818;2022-10-03T18:35:46;1.75;;;1.20;;
23617;SDS011;18207;32.078;34.818;2022-10-03T18:38:21;1.67;;;1.20;;
23617;SDS011;18207;32.078;34.818;2022-10-03T18:40:57;1.67;;;0.82;;
23617;SDS011;18207;32.078;34.818;2022-10-03T18:43:32;1.38;;;0.63;;
23617;SDS011;18207;32.078;34.818;2022-10-03T18:46:15;0.65;;;0.60;;
23617;SDS011;18207;32.078;34.818;2022-10-03T18:49:01;1.88;;;0.77;;
23617;SDS011;18207;32.078;34.818;2022-10-03T18:52:05;2.13;;;1.00;;
23617;SDS011;18207;32.078;34.818;2022-10-03T18:54:49;2.13;;;1.00;;
23617;SDS011;18207;32.078;34.818;2022-10-03T18:57:33;1.25;;;1.00;;
23617;SDS011;18207;32.078;34.818;2022-10-03T19:00:13;1.33;;;0.88;;
23617;SDS011;18207;32.078;34.818;2022-10-03T19:02:49;1.15;;;0.80;;
23617;SDS011;18207;32.078;34.818;2022-10-03T19:05:27;1.98;;;1.23;;
23617;SDS011;18207;32.078;34.818;2022-10-03T19:08:07;1.00;;;0.80;;
23617;SDS011;18207;32.078;34.818;2022-10-03T19:10:49;1.10;;;0.68;;
23617;SDS011;18207;32.078;34.818;2022-10-03T19:13:29;1.25;;;0.88;;
23617;SDS011;18207;32.078;34.818;2022-10-03T19:16:23;1.25;;;0.88;;
23617;SDS011;18207;32.078;34.818;2022-10-03T19:19:23;1.05;;;0.80;;
23617;SDS011;18207;32.078;34.818;2022-10-03T19:22:08;1.67;;;0.80;;
23617;SDS011;18207;32.078;34.818;2022-10-03T19:24:45;2.05;;;0.80;;
23617;SDS011;18207;32.078;34.818;2022-10-03T19:27:33;1.80;;;0.90;;
23617;SDS011;18207;32.078;34.818;2022-10-03T19:30:19;1.95;;;1.00;;
23617;SDS011;18207;32.078;34.818;2022-10-03T19:32:52;1.10;;;0.70;;
23617;SDS011;18207;32.078;34.818;2022-10-03T19:35:30;1.90;;;0.82;;
23617;SDS011;18207;32.078;34.818;2022-10-03T19:38:11;1.23;;;0.85;;
23617;SDS011;18207;32.078;34.818;2022-10-03T19:40:51;0.98;;;0.70;;
23617;SDS011;18207;32.078;34.818;2022-10-03T19:43:30;1.33;;;0.77;;
23617;SDS011;18207;32.078;34.818;2022-10-03T19:52:20;0.70;;;0.70;;
23617;SDS011;18207;32.078;34.818;2022-10-03T19:54:59;1.10;;;0.90;;
23617;SDS011;18207;32.078;34.818;2022-10-03T19:57:40;1.40;;;0.63;;
23617;SDS011;18207;32.078;34.818;2022-10-03T20:00:19;0.80;;;0.68;;
23617;SDS011;18207;32.078;34.818;2022-10-03T20:03:09;0.80;;;0.60;;
23617;SDS011;18207;32.078;34.818;2022-10-03T20:05:49;1.55;;;0.80;;
23617;SDS011;18207;32.078;34.818;2022-10-03T20:08:29;1.33;;;0.70;;
23617;SDS011;18207;32.078;34.818;2022-10-03T20:11:15;1.42;;;0.80;;
23617;SDS011;18207;32.078;34.818;2022-10-03T20:14:02;1.38;;;0.93;;
23617;SDS011;18207;32.078;34.818;2022-10-03T20:16:40;2.22;;;1.02;;
23617;SDS011;18207;32.078;34.818;2022-10-03T20:19:19;1.10;;;0.75;;
23617;SDS011;18207;32.078;34.818;2022-10-03T20:21:53;0.98;;;0.80;;
23617;SDS011;18207;32.078;34.818;2022-10-03T20:24:27;0.95;;;0.60;;
23617;SDS011;18207;32.078;34.818;2022-10-03T20:27:05;0.60;;;0.60;;
23617;SDS011;18207;32.078;34.818;2022-10-03T20:29:55;1.65;;;0.60;;
23617;SDS011;18207;32.078;34.818;2022-10-03T20:32:36;1.02;;;0.70;;
23617;SDS011;18207;32.078;34.818;2022-10-03T20:35:18;1.25;;;0.70;;
23617;SDS011;18207;32.078;34.818;2022-10-03T20:37:55;1.88;;;0.60;;
23617;SDS011;18207;32.078;34.818;2022-10-03T20:40:35;1.25;;;0.88;;
23617;SDS011;18207;32.078;34.818;2022-10-03T20:43:18;1.17;;;0.63;;
23617;SDS011;18207;32.078;34.818;2022-10-03T20:46:11;1.67;;;0.75;;
23617;SDS011;18207;32.078;34.818;2022-10-03T20:48:56;3.05;;;0.98;;
23617;SDS011;18207;32.078;34.818;2022-10-03T20:51:54;0.95;;;0.57;;
23617;SDS011;18207;32.078;34.818;2022-10-03T20:54:29;1.10;;;0.70;;
23617;SDS011;18207;32.078;34.818;2022-10-03T20:57:05;0.98;;;0.65;;
23617;SDS011;18207;32.078;34.818;2022-10-03T20:59:46;0.85;;;0.65;;